Tiempo atmosférico en la estación meteorológica de Fresno De Sayago, Zamora (804 m.)



Fecha
DESCASC
Temp. máxima en grados centígrados (hora)
DESCASC
Temp. mínima en grados centígrados (hora)
DESCASC
Temp. media en grados centígrados
DESCASC
Racha de viento máxima en m/sg (hora)
DESCASC
Velocidad máxima media en intervalos de 10 minutos(hora)
DESCASC
Precipitaciones diarias en mm
DESCASC
Precipitaciones de 00:00 a 06:00 en mm
DESCASC
Precipitaciones de 06:00 a 12:00 en mm
DESCASC
Precipitaciones de 12:00 a 18:00 en mm
DESCASC
Precipitaciones de 18:00 a 24:00 en mm
DESCASC
17-09-2020 28.2 (16:00) 13.6 (23:59) 20.9 10.83 (17:40) 7.5 (17:50) 1.2 0 0 0 1.2
15-09-2020 27.3 (16:10) 12.1 (07:20) 19.7 12.5 (15:30) 6.67 (15:00) 0 0 0 0 0
14-09-2020 28.7 (16:30) 16.2 (05:50) 22.5 10.83 (20:00) 7.5 (16:20) 0 0 0 0 0
13-09-2020 34 (15:10) 12.5 (00:00) 23.3 10.28 (09:40) 6.39 (05:50) 0 0 0 0 0
12-09-2020 32.2 (17:00) 12.3 (07:50) 22.3 10.83 (18:40) 8.06 (10:00) 0 0 0 0 0
11-09-2020 30.9 (17:10) 11.7 (00:00) 21.3 13.33 (09:40) 8.06 (09:40) 0 0 0 0 0
10-09-2020 30.7 (17:30) 8.5 (00:00) 19.6 9.17 (10:40) 6.11 (10:20) 0 0 0 0 0
09-09-2020 30.4 (17:40) 7.8 (07:40) 19.1 8.33 (11:40) 5.56 (05:50) 0 0 0 0 0
08-09-2020 27 (18:10) 5.9 (00:00) 16.5 14.17 (00:10) 9.44 (00:10) 0 0 0 0 0
07-09-2020 23.6 (18:10) 9.8 (07:50) 16.7 16.39 (10:40) 10.83 (10:30) 0 0 0 0 0
06-09-2020 29.4 (17:30) 12.6 (00:00) 21 17.22 (02:40) 10 (23:59) 0 0 0 0 0
05-09-2020 33.3 (18:40) 10.9 (00:00) 22.1 9.72 (23:59) 7.5 (23:59) 0 0 0 0 0
04-09-2020 33.8 (17:20) 11.8 (00:00) 22.8 7.78 (16:00) 5.83 (06:20) 0 0 0 0 0
03-09-2020 32.3 (19:20) 9.5 (00:00) 20.9 9.72 (09:40) 6.94 (09:50) 0 0 0 0 0
02-09-2020 29 (17:40) 10 (00:00) 19.5 11.67 (01:40) 8.33 (01:40) 0 0 0 0 0
01-09-2020 28.1 (19:20) 10.8 (00:00) 19.5 7.22 (16:30) 3.61 (14:30) 0 0 0 0 0
31-08-2020 25.6 (17:40) 5.4 (00:00) 15.5 10.56 (14:40) 6.67 (09:30) 0 0 0 0 0
30-08-2020 21.2 (18:00) 3.3 (00:00) 12.3 10.56 (18:40) 6.67 (18:30) 0 0 0 0 0
29-08-2020 21.8 (17:20) 4.2 (00:00) 13 12.78 (15:50) 7.22 (23:20) 0 0 0 0 0
28-08-2020 24.5 (16:30) 13.5 (00:00) 19 15 (16:40) 10 (19:10) 0 0 0 0 0
27-08-2020 32.3 (16:30) 13.1 (00:00) 22.7 10.28 (17:20) 6.39 (19:20) 0 0 0 0 0
26-08-2020 33.6 (18:20) 12.4 (00:00) 23 8.33 (19:20) 5.56 (09:20) 0 0 0 0 0
25-08-2020 32.4 (17:40) 11.7 (00:00) 22.1 9.72 (14:30) 5.83 (17:20) 0 0 0 0 0
24-08-2020 31.9 (19:50) 11.5 (07:50) 21.7 9.44 (10:40) 6.39 (10:40) 0 0 0 0 0
23-08-2020 29.8 (18:00) 10.1 (00:00) 19.9 9.72 (09:40) 6.11 (10:20) 0 0 0 0 0
22-08-2020 28.7 (17:40) 8.4 (00:00) 18.6 8.33 (17:00) 3.89 (19:50) 0 0 0 0 0
21-08-2020 24.4 (18:40) 15.3 (23:59) 19.8 10.28 (16:40) 7.22 (16:40) 1 0.6 0.4 0 0
20-08-2020 29.2 (16:10) 11.8 (00:00) 20.5 17.22 (19:40) 11.39 (17:00) 15.2 0 0 0 15.2

Gráficas

Temp. máximas Temp. mínimas Temp. medias Precipitaciones Rachas de viento máximas Velocidades máximas media en intervalos de 10 minutos

Datos horarios

Fecha y hora oficial Temperatura (ºC) Velocidad del viento (km/h) Dirección del viento Racha (km/h) Dirección de racha Precipitación (mm) Presión (hPa) Tendencia (hPa) Humedad (%)
2020-09-18 23:00:00 15.5 11 Sur 19 Sur 0 -- -- 69
2020-09-18 22:00:00 14.4 6 Sudeste 12 Sudeste 0 -- -- 78
2020-09-18 21:00:00 15.7 9 Sudeste 19 Sudeste 0 -- -- 73
2020-09-18 20:00:00 18.2 8 Sudeste 28 Sur 0 -- -- 59
2020-09-18 19:00:00 18.1 19 Sur 37 Sur 0 -- -- 60
2020-09-18 18:00:00 17.1 22 Sudoeste 39 Sur 0.2 -- -- 71
2020-09-18 17:00:00 20.9 18 Sur 30 Sur 0 -- -- 46
2020-09-18 16:00:00 21.4 23 Sur 37 Sur 0 -- -- 45
2020-09-18 15:00:00 21.3 15 Sur 30 Sudoeste 0 -- -- 50
2020-09-18 14:00:00 20.6 17 Sur 31 Sur 0 -- -- 48
2020-09-18 13:00:00 20.3 14 Sur 27 Sur 0 -- -- 56
2020-09-18 12:00:00 17.8 16 Sudoeste 24 Sudoeste 0 -- -- 61
2020-09-18 11:00:00 17 16 Sur 22 Sudoeste 0 -- -- 76
2020-09-18 10:00:00 15.6 12 Sur 17 Sur 0 -- -- 89
2020-09-18 09:00:00 13.6 8 Sur 12 Sur 0 -- -- 95
2020-09-18 08:00:00 13.8 4 Sudeste 10 Sudeste 0 -- -- 96
2020-09-18 07:00:00 14.5 7 Sur 22 Sudeste 0.2 -- -- 94
2020-09-18 06:00:00 14.9 11 Sur 20 Sur 0.2 -- -- 90
2020-09-18 05:00:00 14.7 7 Sudeste 16 Sur 0 -- -- 89
2020-09-18 04:00:00 14.6 8 Sudeste 14 Sudeste 0 -- -- 86
2020-09-18 03:00:00 14 9 Sudeste 16 Sudeste 0 -- -- 87
2020-09-18 02:00:00 13.7 11 Sudeste 17 Sudeste 0 -- -- 95
2020-09-18 01:00:00 13.6 3 Sudeste 10 Sur 0 -- -- 96
2020-09-18 00:00:00 13.6 5 Sudeste 35 Sudoeste 1 -- -- 94
2020-09-17 23:00:00 15.5 7 Sur 28 Sur 0.2 -- -- 84
2020-09-17 22:00:00 18.2 14 Sur 32 Sur 0 -- -- 67
2020-09-17 21:00:00 20.4 10 Sur 20 Sur 0 -- -- 62
2020-09-17 20:00:00 21.1 15 Sudoeste 37 Sur 0 -- -- 59
2020-09-17 19:00:00 22.5 23 Sur 39 Sudoeste 0 -- -- 54
2020-09-17 18:00:00 24.1 23 Sur 39 Sudoeste 0 -- -- 47
2020-09-17 17:00:00 27 16 Sur 30 Sudeste 0 -- -- 37
2020-09-17 16:00:00 28.2 14 Este 28 Sudeste 0 -- -- 35
2020-09-17 15:00:00 25.9 10 Sur 22 Este 0 -- -- 41
2020-09-17 14:00:00 25.3 9 Nordeste 21 Sudeste 0 -- -- 42
2020-09-17 13:00:00 24.9 4 Sudeste 16 Sudeste 0 -- -- 44
2020-09-17 12:00:00 21.9 8 Sur 17 Sur 0 -- -- 52
2020-09-17 11:00:00 21.5 9 Sudeste 16 Sudeste 0 -- -- 53
2020-09-17 10:00:00 19.3 2 Nordeste 9 Sudeste 0 -- -- 61
2020-09-17 09:00:00 18.6 4 Este 8 Nordeste 0 -- -- 61
2020-09-17 08:00:00 18.9 6 Este 13 Este 0 -- -- 58
2020-09-17 07:00:00 19.4 9 Este 26 Este 0 -- -- 56
2020-09-17 06:00:00 20.1 18 Este 27 Sudeste 0 -- -- 52
2020-09-17 05:00:00 19.8 11 Sudeste 21 Este 0 -- -- 48
2020-09-17 04:00:00 20.5 13 Sudeste 25 Sudeste 0 -- -- 45
2020-09-17 03:00:00 21.4 15 Sudeste 23 Sudeste 0 -- -- 41
2020-09-17 02:00:00 20.9 9 Sudeste 17 Sudeste 0 -- -- 44
2020-09-17 01:00:00 21.9 14 Sudeste 27 Sudeste 0 -- -- 41
2020-09-17 00:00:00 20.1 5 Este 14 Noroeste 0 -- -- 47
2020-09-16 23:00:00 22.1 12 Oeste 15 Oeste 0 -- -- 41
2020-09-16 22:00:00 23.6 10 Oeste 23 Oeste 0 -- -- 37
2020-09-16 21:00:00 23.2 6 Noroeste 9 Norte 0 -- -- 39
2020-09-16 20:00:00 24.3 8 Norte 13 Nordeste 0 -- -- 36
2020-09-16 19:00:00 26.4 8 Nordeste 21 Este 0 -- -- 31
2020-09-16 18:00:00 27.5 11 Este 26 Este 0 -- -- 29
2020-09-16 17:00:00 27.9 15 Este 26 Este 0 -- -- 28
2020-09-16 16:00:00 28 12 Este 29 Este 0 -- -- 30
2020-09-16 15:00:00 27.3 11 Este 31 Este 0 -- -- 36
2020-09-16 14:00:00 26.1 15 Nordeste 27 Nordeste 0 -- -- 38
2020-09-16 13:00:00 24.3 19 Nordeste 27 Nordeste 0 -- -- 43
2020-09-16 12:00:00 23.8 15 Nordeste 21 Nordeste 0 -- -- 44
2020-09-16 11:00:00 21 12 Nordeste 18 Este 0 -- -- 52
2020-09-16 10:00:00 17.3 10 Nordeste 18 Nordeste 0 -- -- 63
2020-09-16 09:00:00 12.3 7 Nordeste 13 Nordeste 0 -- -- 82
2020-09-16 08:00:00 9.8 5 Sudeste 8 Sudeste 0 -- -- 90
2020-09-16 07:00:00 10.2 4 Sur 8 Sudoeste 0 -- -- 83
2020-09-16 06:00:00 12.3 6 Sur 10 Sudeste 0 -- -- 77
2020-09-16 05:00:00 13 5 Sudeste 9 Sudeste 0 -- -- 74
2020-09-16 04:00:00 11.9 4 Sudeste 8 Sudeste 0 -- -- 76
2020-09-16 03:00:00 11.9 7 Sudeste 8 Sudeste 0 -- -- 79
2020-09-16 02:00:00 13.5 5 Sudeste 7 Sudeste 0 -- -- 70
2020-09-16 01:00:00 13.1 6 Sudeste 7 Sudeste 0 -- -- 67
2020-09-16 00:00:00 16 6 Sudoeste 8 Oeste 0 -- -- 59
2020-09-15 23:00:00 15.3 4 Sudoeste 11 Sudoeste 0 -- -- 58
2020-09-15 22:00:00 17.2 5 Sudoeste 9 Sudoeste 0 -- -- 52
2020-09-15 21:00:00 19.5 7 Sudoeste 18 Sudoeste 0 -- -- 45
2020-09-15 20:00:00 24 13 Sudoeste 32 Sudoeste 0 -- -- 37
2020-09-15 19:00:00 25.8 20 Sudoeste 30 Sudoeste 0 -- -- 33
2020-09-15 18:00:00 26.4 18 Sudoeste 35 Sudoeste 0 -- -- 33
2020-09-15 17:00:00 26.7 16 Sudoeste 41 Oeste 0 -- -- 32
2020-09-15 16:00:00 26.9 18 Sudoeste 45 Sudoeste 0 -- -- 31
2020-09-15 15:00:00 26.1 24 Sudoeste 42 Sudoeste 0 -- -- 36
2020-09-15 14:00:00 25.2 18 Sudoeste 34 Sudoeste 0 -- -- 41
2020-09-15 13:00:00 24.3 15 Sudoeste 28 Sudoeste 0 -- -- 48
2020-09-15 12:00:00 22.7 14 Sur 22 Sur 0 -- -- 54
2020-09-15 11:00:00 20.4 5 Sudeste 9 Sur 0 -- -- 71
2020-09-15 10:00:00 15.4 3 Sur 6 Sur 0 -- -- 91
2020-09-15 09:00:00 13.2 3 Sur 6 Sudeste 0 -- -- 97
2020-09-15 08:00:00 12.1 5 Sudeste 9 Sudeste 0 -- -- 97
2020-09-15 07:00:00 12.9 4 Sur 6 Sur 0 -- -- 96
2020-09-15 06:00:00 13.4 4 Sudoeste 9 Sudoeste 0 -- -- 93
2020-09-15 05:00:00 14.5 9 Sudoeste 11 Sudoeste 0 -- -- 86
2020-09-15 04:00:00 15 7 Sudoeste 14 Sudoeste 0 -- -- 80
2020-09-15 03:00:00 14.9 5 Sudoeste 8 Sudoeste 0 -- -- 77
2020-09-15 02:00:00 16.8 6 Sudoeste 16 Sudeste 0 -- -- 70
2020-09-15 01:00:00 17.3 7 Sudeste 12 Sudeste 0 -- -- 66
2020-09-15 00:00:00 19.6 9 Oeste 22 Sudoeste 0 -- -- 58
2020-09-14 23:00:00 20.1 10 Sudoeste 17 Sudoeste 0 -- -- 56
2020-09-14 22:00:00 20.1 10 Sudoeste 13 Sudoeste 0 -- -- 55
2020-09-14 21:00:00 21.4 12 Sudoeste 35 Sudoeste 0 -- -- 47
2020-09-14 20:00:00 25.6 26 Sur 39 Sur 0 -- -- 37
2020-09-14 19:00:00 27.2 12 Sur 33 Sur 0 -- -- 36
2020-09-14 18:00:00 27.7 20 Sudoeste 37 Sudoeste 0 -- -- 35
2020-09-14 17:00:00 27.5 19 Sudoeste 39 Sudoeste 0 -- -- 36
2020-09-14 16:00:00 27.5 22 Sudoeste 36 Sur 0 -- -- 38
2020-09-14 15:00:00 27.2 17 Sudoeste 32 Sudoeste 0 -- -- 39
2020-09-14 14:00:00 25.8 12 Sur 31 Sudoeste 0 -- -- 41
2020-09-14 13:00:00 25.1 18 Sur 31 Sur 0 -- -- 45
2020-09-14 12:00:00 21.6 10 Sudoeste 18 Sudoeste 0 -- -- 60
2020-09-14 11:00:00 20.4 8 Sur 18 Sudoeste 0 -- -- 63
2020-09-14 10:00:00 19.9 6 Sur 12 Sudeste 0 -- -- 63
2020-09-14 09:00:00 18.2 6 Sudoeste 8 Sudoeste 0 -- -- 68
2020-09-14 08:00:00 17.9 5 Sur 11 Sudoeste 0 -- -- 63
2020-09-14 07:00:00 17.5 6 Sudoeste 12 Sudoeste 0 -- -- 59
2020-09-14 06:00:00 16.3 8 Sudoeste 14 Sudoeste 0 -- -- 58
2020-09-14 05:00:00 17.5 5 Sur 11 Sur 0 -- -- 52
2020-09-14 04:00:00 17.9 6 Sudoeste 29 Sudoeste 0 -- -- 52
2020-09-14 03:00:00 20.5 9 Sudeste 15 Sudeste 0 -- -- 43
2020-09-14 02:00:00 19.9 5 Sudeste 11 Sudeste 0 -- -- 46
2020-09-14 01:00:00 20.3 7 Sudeste 9 Sudeste 0 -- -- 45
2020-09-14 00:00:00 20.4 5 Sudeste 6 Sudeste 0 -- -- 44
2020-09-13 23:00:00 21.5 4 Sudeste 6 Este 0 -- -- 40
2020-09-13 22:00:00 20.5 5 Sudeste 6 Sudeste 0 -- -- 42
2020-09-13 21:00:00 23 3 Este 15 Sudoeste 0 -- -- 35
2020-09-13 20:00:00 28.6 12 Sudoeste 27 Sudoeste 0 -- -- 27
2020-09-13 19:00:00 29.6 18 Sudoeste 30 Oeste 0 -- -- 25
2020-09-13 18:00:00 30.9 20 Sudoeste 32 Sudoeste 0 -- -- 24
2020-09-13 17:00:00 33.5 8 Este 26 Este 0 -- -- 20
2020-09-13 16:00:00 32.4 11 Nordeste 23 Nordeste 0 -- -- 22
2020-09-13 15:00:00 31.4 5 Oeste 20 Oeste 0 -- -- 24
2020-09-13 14:00:00 30.4 6 Oeste 15 Sur 0 -- -- 25
2020-09-13 13:00:00 29 7 Este 19 Nordeste 0 -- -- 27
2020-09-13 12:00:00 24.2 15 Nordeste 24 Nordeste 0 -- -- 34
2020-09-13 11:00:00 20.7 17 Nordeste 23 Nordeste 0 -- -- 41
2020-09-13 10:00:00 17.4 21 Nordeste 37 Nordeste 0 -- -- 48
2020-09-13 09:00:00 13.8 22 Nordeste 34 Nordeste 0 -- -- 57
2020-09-13 08:00:00 12.5 18 Nordeste 28 Nordeste 0 -- -- 59
2020-09-13 07:00:00 13.3 22 Nordeste 34 Nordeste 0 -- -- 54
2020-09-13 06:00:00 14.6 19 Nordeste 31 Nordeste 0 -- -- 49
2020-09-13 05:00:00 14.9 18 Nordeste 24 Nordeste 0 -- -- 46
2020-09-13 04:00:00 16.3 19 Nordeste 24 Nordeste 0 -- -- 40
2020-09-13 03:00:00 14.9 17 Nordeste 23 Nordeste 0 -- -- 42
2020-09-13 02:00:00 17.5 15 Nordeste 24 Este 0 -- -- 36
2020-09-13 01:00:00 16.1 16 Este 21 Nordeste 0 -- -- 42
2020-09-13 00:00:00 16.3 15 Nordeste 18 Nordeste 0 -- -- 46
2020-09-12 23:00:00 17.5 14 Nordeste 15 Nordeste 0 -- -- 42
2020-09-12 22:00:00 18.7 10 Nordeste 15 Nordeste 0 -- -- 39
2020-09-12 21:00:00 21.4 10 Nordeste 15 Nordeste 0 -- -- 33
2020-09-12 20:00:00 26.9 13 Nordeste 22 Nordeste 0 -- -- 25
2020-09-12 19:00:00 30 15 Nordeste 39 Nordeste 0 -- -- 22
2020-09-12 18:00:00 30.4 13 Nordeste 23 Este 0 -- -- 22
2020-09-12 17:00:00 32.2 11 Este 28 Nordeste 0 -- -- 22
2020-09-12 16:00:00 31.2 15 Nordeste 33 Este 0 -- -- 23
2020-09-12 15:00:00 30 23 Este 33 Nordeste 0 -- -- 24
2020-09-12 14:00:00 28.9 18 Este 33 Este 0 -- -- 29
2020-09-12 13:00:00 26.3 18 Este 28 Este 0 -- -- 36
2020-09-12 12:00:00 22.6 22 Nordeste 33 Nordeste 0 -- -- 47
2020-09-12 11:00:00 19.6 22 Nordeste 38 Nordeste 0 -- -- 58
2020-09-12 10:00:00 16.4 29 Nordeste 37 Nordeste 0 -- -- 70
2020-09-12 09:00:00 14 21 Nordeste 27 Nordeste 0 -- -- 77
2020-09-12 08:00:00 12.4 22 Nordeste 31 Nordeste 0 -- -- 77
2020-09-12 07:00:00 12.7 21 Nordeste 27 Nordeste 0 -- -- 71
2020-09-12 06:00:00 13 19 Nordeste 27 Nordeste 0 -- -- 62
2020-09-12 05:00:00 13 15 Nordeste 18 Nordeste 0 -- -- 60
2020-09-12 04:00:00 13.4 13 Nordeste 18 Este 0 -- -- 57
2020-09-12 03:00:00 16.8 13 Este 24 Nordeste 0 -- -- 46
2020-09-12 02:00:00 14.9 13 Este 18 Nordeste 0 -- -- 56
2020-09-12 01:00:00 15.3 9 Nordeste 15 Nordeste 0 -- -- 54
2020-09-12 00:00:00 17.6 8 Nordeste 11 Nordeste 0 -- -- 47
2020-09-11 23:00:00 18.6 6 Este 9 Nordeste 0 -- -- 44
2020-09-11 22:00:00 19.3 5 Nordeste 8 Nordeste 0 -- -- 43
2020-09-11 21:00:00 21.3 6 Nordeste 10 Nordeste 0 -- -- 38
2020-09-11 20:00:00 26.2 9 Nordeste 19 Nordeste 0 -- -- 29
2020-09-11 19:00:00 27.9 11 Nordeste 17 Nordeste 0 -- -- 26
2020-09-11 18:00:00 28.1 8 Nordeste 21 Nordeste 0 -- -- 26
2020-09-11 17:00:00 30 11 Nordeste 26 Nordeste 0 -- -- 24
2020-09-11 16:00:00 30 8 Nordeste 27 Nordeste 0 -- -- 24
2020-09-11 15:00:00 28.6 10 Nordeste 23 Este 0 -- -- 26
2020-09-11 14:00:00 27.8 12 Este 26 Este 0 -- -- 30
2020-09-11 13:00:00 25 18 Nordeste 26 Nordeste 0 -- -- 38
2020-09-11 12:00:00 21.9 23 Nordeste 31 Este 0 -- -- 46
2020-09-11 11:00:00 19.4 18 Nordeste 35 Nordeste 0 -- -- 54
2020-09-11 10:00:00 16 26 Nordeste 48 Nordeste 0 -- -- 65
2020-09-11 09:00:00 13.3 19 Nordeste 29 Nordeste 0 -- -- 75
2020-09-11 08:00:00 12 20 Nordeste 30 Nordeste 0 -- -- 78
2020-09-11 07:00:00 12.5 19 Nordeste 27 Nordeste 0 -- -- 74
2020-09-11 06:00:00 12.7 17 Nordeste 25 Nordeste 0 -- -- 70
2020-09-11 05:00:00 12.1 14 Nordeste 20 Nordeste 0 -- -- 65
2020-09-11 04:00:00 13.6 6 Nordeste 12 Nordeste 0 -- -- 55
2020-09-11 03:00:00 14.8 10 Nordeste 22 Nordeste 0 -- -- 50
2020-09-11 02:00:00 17 8 Este 15 Este 0 -- -- 45
2020-09-11 01:00:00 17.2 4 Este 7 Este 0 -- -- 44
2020-09-11 00:00:00 18 4 Este 7 Este 0 -- -- 42
2020-09-10 23:00:00 18 7 Este 14 Este 0 -- -- 42
2020-09-10 22:00:00 18.6 8 Este 13 Este 0 -- -- 39
2020-09-10 21:00:00 22.7 11 Este 15 Este 0 -- -- 32
2020-09-10 20:00:00 27.7 12 Este 23 Este 0 -- -- 26
2020-09-10 19:00:00 29.2 11 Este 23 Nordeste 0 -- -- 24
2020-09-10 18:00:00 29.6 13 Este 25 Este 0 -- -- 23
2020-09-10 17:00:00 29.8 9 Sudeste 22 Nordeste 0 -- -- 23
2020-09-10 16:00:00 29 9 Sur 21 Nordeste 0 -- -- 24
2020-09-10 15:00:00 28.7 7 Sudeste 18 Nordeste 0 -- -- 27
2020-09-10 14:00:00 27.8 7 Este 17 Nordeste 0 -- -- 31
2020-09-10 13:00:00 25.4 8 Este 22 Nordeste 0 -- -- 36
2020-09-10 12:00:00 21.8 15 Nordeste 25 Nordeste 0 -- -- 46
2020-09-10 11:00:00 18.5 19 Nordeste 33 Nordeste 0 -- -- 56
2020-09-10 10:00:00 15.7 22 Nordeste 31 Nordeste 0 -- -- 65
2020-09-10 09:00:00 12.4 19 Nordeste 23 Nordeste 0 -- -- 78
2020-09-10 08:00:00 9 10 Nordeste 12 Nordeste 0 -- -- 86
2020-09-10 07:00:00 10.2 5 Nordeste 14 Nordeste 0 -- -- 81
2020-09-10 06:00:00 10 10 Nordeste 15 Nordeste 0 -- -- 78
2020-09-10 05:00:00 11.6 8 Nordeste 18 Nordeste 0 -- -- 71
2020-09-10 04:00:00 12.3 12 Nordeste 15 Nordeste 0 -- -- 60
2020-09-10 03:00:00 11.7 10 Nordeste 21 Nordeste 0 -- -- 55
2020-09-10 02:00:00 13.8 17 Nordeste 26 Nordeste 0 -- -- 48
2020-09-10 01:00:00 14.1 5 Nordeste 6 Nordeste 0 -- -- 47
2020-09-10 00:00:00 14.1 3 Nordeste 4 Nordeste 0 -- -- 46
2020-09-09 23:00:00 17.1 2 Nordeste 9 Este 0 -- -- 38
2020-09-09 22:00:00 17.3 9 Este 10 Este 0 -- -- 37
2020-09-09 21:00:00 20.1 8 Este 13 Este 0 -- -- 31
2020-09-09 20:00:00 26.4 12 Nordeste 17 Nordeste 0 -- -- 22
2020-09-09 19:00:00 28.6 8 Nordeste 20 Este 0 -- -- 20
2020-09-09 18:00:00 28.8 12 Nordeste 23 Este 0 -- -- 20
2020-09-09 17:00:00 29 6 Oeste 22 Norte 0 -- -- 20
2020-09-09 16:00:00 28.9 6 Sudeste 19 Nordeste 0 -- -- 20
2020-09-09 15:00:00 28.5 6 Nordeste 20 Sudeste 0 -- -- 20
2020-09-09 14:00:00 27.3 8 Este 16 Nordeste 0 -- -- 23
2020-09-09 13:00:00 24.1 10 Nordeste 21 Nordeste 0 -- -- 31
2020-09-09 12:00:00 20.7 14 Nordeste 30 Nordeste 0 -- -- 36
2020-09-09 11:00:00 17.3 18 Este 24 Nordeste 0 -- -- 45
2020-09-09 10:00:00 14.2 14 Nordeste 20 Nordeste 0 -- -- 57
2020-09-09 09:00:00 10.7 12 Este 23 Nordeste 0 -- -- 70
2020-09-09 08:00:00 8.5 16 Nordeste 23 Nordeste 0 -- -- 75
2020-09-09 07:00:00 9.4 19 Nordeste 28 Nordeste 0 -- -- 69
2020-09-09 06:00:00 10.1 18 Nordeste 26 Nordeste 0 -- -- 65
2020-09-09 05:00:00 9.3 13 Nordeste 23 Nordeste 0 -- -- 61
2020-09-09 04:00:00 9.1 14 Nordeste 15 Nordeste 0 -- -- 61
2020-09-09 03:00:00 8.7 5 Nordeste 7 Nordeste 0 -- -- 60
2020-09-09 02:00:00 12.4 0 Calma 12 Nordeste 0 -- -- 48
2020-09-09 01:00:00 12.7 13 Nordeste 21 Nordeste 0 -- -- 43
2020-09-09 00:00:00 13.1 9 Nordeste 15 Nordeste 0 -- -- 39
2020-09-08 23:00:00 12.9 14 Nordeste 19 Nordeste 0 -- -- 38
2020-09-08 22:00:00 13.7 9 Nordeste 12 Nordeste 0 -- -- 37
2020-09-08 21:00:00 19.1 5 Nordeste 12 Este 0 -- -- 27
2020-09-08 20:00:00 25.6 10 Este 19 Nordeste 0 -- -- 19
2020-09-08 19:00:00 26.4 8 Este 17 Nordeste 0 -- -- 19
2020-09-08 18:00:00 26.5 9 Este 22 Este 0 -- -- 20
2020-09-08 17:00:00 25.6 13 Este 27 Este 0 -- -- 22
2020-09-08 16:00:00 24.9 16 Este 40 Este 0 -- -- 25
2020-09-08 15:00:00 23.7 19 Este 33 Nordeste 0 -- -- 27
2020-09-08 14:00:00 21.2 18 Este 33 Nordeste 0 -- -- 36
2020-09-08 13:00:00 18.7 23 Nordeste 37 Este 0 -- -- 44
2020-09-08 12:00:00 16.6 23 Nordeste 33 Nordeste 0 -- -- 53
2020-09-08 11:00:00 13.6 22 Nordeste 34 Este 0 -- -- 65
2020-09-08 10:00:00 11.7 23 Nordeste 42 Nordeste 0 -- -- 73
2020-09-08 09:00:00 8.6 17 Nordeste 26 Nordeste 0 -- -- 87
2020-09-08 08:00:00 7.1 17 Nordeste 24 Nordeste 0 -- -- 91
2020-09-08 07:00:00 7.4 16 Nordeste 24 Nordeste 0 -- -- 87
2020-09-08 06:00:00 7.2 19 Nordeste 24 Nordeste 0 -- -- 84
2020-09-08 05:00:00 6.9 10 Nordeste 22 Nordeste 0 -- -- 79
2020-09-08 04:00:00 9.2 15 Nordeste 26 Nordeste 0 -- -- 71
2020-09-08 03:00:00 9.7 14 Este 36 Nordeste 0 -- -- 67
2020-09-08 02:00:00 11.4 26 Nordeste 36 Nordeste 0 -- -- 62
2020-09-08 01:00:00 12.1 23 Nordeste 51 Nordeste 0 -- -- 64
2020-09-08 00:00:00 14.3 33 Nordeste 46 Nordeste 0 -- -- 57
2020-09-07 23:00:00 15 23 Nordeste 42 Nordeste 0 -- -- 55
2020-09-07 22:00:00 16.4 22 Nordeste 31 Nordeste 0 -- -- 49
2020-09-07 21:00:00 18.2 23 Nordeste 39 Nordeste 0 -- -- 43
2020-09-07 20:00:00 20.8 26 Nordeste 40 Nordeste 0 -- -- 37
2020-09-07 19:00:00 22.8 26 Nordeste 44 Nordeste 0 -- -- 33
2020-09-07 18:00:00 23.4 24 Nordeste 42 Nordeste 0 -- -- 31
2020-09-07 17:00:00 23 31 Nordeste 43 Nordeste 0 -- -- 31
2020-09-07 16:00:00 22.9 27 Nordeste 45 Nordeste 0 -- -- 35
2020-09-07 15:00:00 22 24 Este 47 Nordeste 0 -- -- 38
2020-09-07 14:00:00 20.6 28 Este 44 Nordeste 0 -- -- 41
2020-09-07 13:00:00 19.3 30 Este 49 Nordeste 0 -- -- 42
2020-09-07 12:00:00 17.7 31 Este 49 Nordeste 0 -- -- 48
2020-09-07 11:00:00 15.5 35 Este 59 Este 0 -- -- 55
2020-09-07 10:00:00 13.3 36 Este 52 Nordeste 0 -- -- 70
2020-09-07 09:00:00 11.2 29 Nordeste 41 Nordeste 0 -- -- 78
2020-09-07 08:00:00 9.9 23 Nordeste 30 Nordeste 0 -- -- 83
2020-09-07 07:00:00 10.3 19 Nordeste 36 Nordeste 0 -- -- 80
2020-09-07 06:00:00 11.1 30 Nordeste 42 Nordeste 0 -- -- 75
2020-09-07 05:00:00 11.4 27 Nordeste 38 Nordeste 0 -- -- 74
2020-09-07 04:00:00 11.8 26 Nordeste 44 Nordeste 0 -- -- 72
2020-09-07 03:00:00 12.7 29 Nordeste 41 Nordeste 0 -- -- 68
2020-09-07 02:00:00 13.4 26 Nordeste 38 Nordeste 0 -- -- 63
2020-09-07 01:00:00 14.3 30 Nordeste 52 Este 0 -- -- 60
2020-09-07 00:00:00 15.9 36 Nordeste 48 Nordeste 0 -- -- 55
2020-09-06 23:00:00 18.4 27 Nordeste 40 Este 0 -- -- 49
2020-09-06 22:00:00 20.2 20 Nordeste 31 Nordeste 0 -- -- 47
2020-09-06 21:00:00 22.3 17 Nordeste 25 Nordeste 0 -- -- 44
2020-09-06 20:00:00 26.4 18 Nordeste 27 Nordeste 0 -- -- 34
2020-09-06 19:00:00 28 17 Nordeste 26 Este 0 -- -- 32
2020-09-06 18:00:00 29.1 15 Nordeste 23 Norte 0 -- -- 31
2020-09-06 17:00:00 29 13 Nordeste 27 Nordeste 0 -- -- 32
2020-09-06 16:00:00 28.2 12 Nordeste 36 Nordeste 0 -- -- 34
2020-09-06 15:00:00 27.1 15 Nordeste 29 Nordeste 0 -- -- 37
2020-09-06 14:00:00 25 21 Nordeste 32 Nordeste 0 -- -- 42
2020-09-06 13:00:00 22.8 24 Nordeste 36 Nordeste 0 -- -- 48
2020-09-06 12:00:00 20.5 23 Nordeste 35 Nordeste 0 -- -- 56
2020-09-06 11:00:00 18.2 25 Nordeste 39 Nordeste 0 -- -- 64
2020-09-06 10:00:00 15.6 28 Nordeste 45 Nordeste 0 -- -- 74
2020-09-06 09:00:00 13.6 32 Nordeste 42 Nordeste 0 -- -- 82
2020-09-06 08:00:00 12.7 26 Nordeste 41 Nordeste 0 -- -- 85
2020-09-06 07:00:00 13 22 Nordeste 36 Nordeste 0 -- -- 84
2020-09-06 06:00:00 13.4 26 Nordeste 37 Nordeste 0 -- -- 83
2020-09-06 05:00:00 13.9 26 Nordeste 39 Nordeste 0 -- -- 84
2020-09-06 04:00:00 14.3 29 Nordeste 49 Nordeste 0 -- -- 82
2020-09-06 03:00:00 14.8 35 Nordeste 62 Nordeste 0 -- -- 80
2020-09-06 02:00:00 15.5 29 Nordeste 48 Nordeste 0 -- -- 77
2020-09-06 01:00:00 16.3 26 Nordeste 42 Nordeste 0 -- -- 73
2020-09-06 00:00:00 18.3 27 Nordeste 35 Norte 0 -- -- 67
2020-09-05 23:00:00 20.5 18 Nordeste 26 Nordeste 0 -- -- 59
2020-09-05 22:00:00 23 18 Nordeste 32 Nordeste 0 -- -- 50
2020-09-05 21:00:00 23.7 10 Nordeste 15 Nordeste 0 -- -- 34
2020-09-05 20:00:00 30.4 10 Nordeste 20 Este 0 -- -- 22
2020-09-05 19:00:00 33 5 Este 23 Nordeste 0 -- -- 20
2020-09-05 18:00:00 32.5 9 Este 25 Este 0 -- -- 20
2020-09-05 17:00:00 32.6 14 Este 27 Este 0 -- -- 21
2020-09-05 16:00:00 31.6 12 Nordeste 34 Nordeste 0 -- -- 23
2020-09-05 15:00:00 30.7 15 Nordeste 30 Nordeste 0 -- -- 25
2020-09-05 14:00:00 29.5 18 Nordeste 27 Nordeste 0 -- -- 29
2020-09-05 13:00:00 27.6 18 Nordeste 30 Nordeste 0 -- -- 33
2020-09-05 12:00:00 25.2 17 Nordeste 24 Nordeste 0 -- -- 38
2020-09-05 11:00:00 22.4 17 Nordeste 25 Nordeste 0 -- -- 44
2020-09-05 10:00:00 19.4 18 Nordeste 23 Nordeste 0 -- -- 53
2020-09-05 09:00:00 15.9 7 Nordeste 10 Nordeste 0 -- -- 65
2020-09-05 08:00:00 11.3 0 Calma 6 Este 0 -- -- 71
2020-09-05 07:00:00 12.7 0 Calma 6 Nordeste 0 -- -- 66
2020-09-05 06:00:00 14 3 Nordeste 12 Nordeste 0 -- -- 62
2020-09-05 05:00:00 15.2 3 Nordeste 15 Norte 0 -- -- 54
2020-09-05 04:00:00 15.1 5 Norte 11 Nordeste 0 -- -- 55
2020-09-05 03:00:00 14.8 5 Norte 9 Noroeste 0 -- -- 54
2020-09-05 02:00:00 16.4 2 Sudoeste 6 Nordeste 0 -- -- 48
2020-09-05 01:00:00 18 3 Sudoeste 6 Oeste 0 -- -- 43
2020-09-05 00:00:00 21.9 5 Noroeste 21 Oeste 0 -- -- 33
2020-09-04 23:00:00 20.9 8 Nordeste 26 Oeste 0 -- -- 34
2020-09-04 22:00:00 23.8 9 Norte 12 Noroeste 0 -- -- 29
2020-09-04 21:00:00 27.2 6 Norte 15 Oeste 0 -- -- 24
2020-09-04 20:00:00 31.5 10 Oeste 24 Oeste 0 -- -- 20
2020-09-04 19:00:00 32.7 9 Oeste 25 Oeste 0 -- -- 19
2020-09-04 18:00:00 33.7 4 Este 25 Sudoeste 0 -- -- 18
2020-09-04 17:00:00 32.6 12 Sudoeste 22 Sudoeste 0 -- -- 19
2020-09-04 16:00:00 32 19 Sudoeste 28 Oeste 0 -- -- 20
2020-09-04 15:00:00 31.6 10 Sur 22 Sudoeste 0 -- -- 19
2020-09-04 14:00:00 30.6 12 Sudoeste 27 Oeste 0 -- -- 21
2020-09-04 13:00:00 29.6 10 Sudoeste 21 Sudoeste 0 -- -- 22
2020-09-04 12:00:00 27.2 6 Este 17 Nordeste 0 -- -- 27
2020-09-04 11:00:00 21.8 14 Nordeste 22 Nordeste 0 -- -- 40
2020-09-04 10:00:00 18 15 Nordeste 22 Nordeste 0 -- -- 51
2020-09-04 09:00:00 14.7 12 Este 17 Nordeste 0 -- -- 63
2020-09-04 08:00:00 12.2 5 Sudeste 15 Nordeste 0 -- -- 67
2020-09-04 07:00:00 12.6 10 Nordeste 24 Nordeste 0 -- -- 61
2020-09-04 06:00:00 12.9 16 Nordeste 20 Nordeste 0 -- -- 55
2020-09-04 05:00:00 13.8 15 Nordeste 18 Nordeste 0 -- -- 50
2020-09-04 04:00:00 16.5 2 Sudeste 6 Sudeste 0 -- -- 39
2020-09-04 03:00:00 15.6 4 Sur 11 Este 0 -- -- 43
2020-09-04 02:00:00 17.9 0 Calma 6 Este 0 -- -- 34
2020-09-04 01:00:00 18.6 4 Este 10 Sudeste 0 -- -- 33
2020-09-04 00:00:00 18.7 3 Este 10 Este 0 -- -- 35
2020-09-03 23:00:00 17.4 8 Este 14 Nordeste 0 -- -- 37
2020-09-03 22:00:00 19.1 11 Nordeste 14 Nordeste 0 -- -- 31
2020-09-03 21:00:00 22.3 10 Nordeste 17 Nordeste 0 -- -- 29
2020-09-03 20:00:00 30.7 6 Este 18 Este 0 -- -- 20
2020-09-03 19:00:00 31.7 4 Sudoeste 18 Este 0 -- -- 19
2020-09-03 18:00:00 30.8 9 Este 18 Nordeste 0 -- -- 20
2020-09-03 17:00:00 31.7 10 Este 19 Este 0 -- -- 20
2020-09-03 16:00:00 30.7 7 Norte 24 Este 0 -- -- 20
2020-09-03 15:00:00 29.6 9 Este 22 Este 0 -- -- 22
2020-09-03 14:00:00 27.9 8 Norte 22 Este 0 -- -- 27
2020-09-03 13:00:00 26.4 10 Este 22 Este 0 -- -- 31
2020-09-03 12:00:00 23.4 13 Este 25 Nordeste 0 -- -- 38
2020-09-03 11:00:00 19.2 21 Nordeste 33 Nordeste 0 -- -- 52
2020-09-03 10:00:00 16.1 24 Nordeste 35 Nordeste 0 -- -- 65
2020-09-03 09:00:00 12.5 21 Nordeste 27 Nordeste 0 -- -- 75
2020-09-03 08:00:00 10.3 15 Nordeste 22 Nordeste 0 -- -- 78
2020-09-03 07:00:00 10 18 Nordeste 24 Nordeste 0 -- -- 73
2020-09-03 06:00:00 9.8 4 Nordeste 11 Nordeste 0 -- -- 70
2020-09-03 05:00:00 11.8 5 Nordeste 11 Nordeste 0 -- -- 61
2020-09-03 04:00:00 11.5 12 Nordeste 15 Nordeste 0 -- -- 62
2020-09-03 03:00:00 13.1 14 Nordeste 17 Este 0 -- -- 58
2020-09-03 02:00:00 14.2 9 Nordeste 13 Este 0 -- -- 53
2020-09-03 01:00:00 14.6 9 Este 14 Este 0 -- -- 51
2020-09-03 00:00:00 15 7 Este 12 Nordeste 0 -- -- 50
2020-09-02 23:00:00 16.5 11 Este 15 Este 0 -- -- 43
2020-09-02 22:00:00 15.8 9 Nordeste 13 Nordeste 0 -- -- 43
2020-09-02 21:00:00 20.1 10 Nordeste 17 Nordeste 0 -- -- 34
2020-09-02 20:00:00 26.3 11 Nordeste 21 Nordeste 0 -- -- 25
2020-09-02 19:00:00 28.3 6 Norte 18 Este 0 -- -- 23
2020-09-02 18:00:00 28.7 8 Este 18 Nordeste 0 -- -- 23
2020-09-02 17:00:00 28 11 Este 22 Nordeste 0 -- -- 24
2020-09-02 16:00:00 26.7 9 Este 23 Nordeste 0 -- -- 27
2020-09-02 15:00:00 26.3 11 Este 27 Nordeste 0 -- -- 29
2020-09-02 14:00:00 24.1 20 Este 29 Nordeste 0 -- -- 35
2020-09-02 13:00:00 21.8 18 Nordeste 33 Nordeste 0 -- -- 42
2020-09-02 12:00:00 19.2 24 Nordeste 37 Nordeste 0 -- -- 51
2020-09-02 11:00:00 16.5 23 Nordeste 33 Nordeste 0 -- -- 61
2020-09-02 10:00:00 13.9 22 Nordeste 32 Nordeste 0 -- -- 71
2020-09-02 09:00:00 11.2 26 Nordeste 40 Nordeste 0 -- -- 86
2020-09-02 08:00:00 10.1 28 Nordeste 35 Nordeste 0 -- -- 89
2020-09-02 07:00:00 10.5 26 Nordeste 37 Nordeste 0 -- -- 87
2020-09-02 06:00:00 11.1 21 Nordeste 32 Nordeste 0 -- -- 85
2020-09-02 05:00:00 11.5 21 Nordeste 39 Nordeste 0 -- -- 82
2020-09-02 04:00:00 12.4 29 Nordeste 37 Nordeste 0 -- -- 77
2020-09-02 03:00:00 13.1 24 Nordeste 37 Nordeste 0 -- -- 73
2020-09-02 02:00:00 14.1 29 Nordeste 42 Nordeste 0 -- -- 67
2020-09-02 01:00:00 15.4 27 Nordeste 38 Nordeste 0 -- -- 63
2020-09-02 00:00:00 15.3 10 Nordeste 20 Nordeste 0 -- -- 43
2020-09-01 23:00:00 16 9 Nordeste 16 Este 0 -- -- 37
2020-09-01 22:00:00 18.1 9 Este 14 Este 0 -- -- 33
2020-09-01 21:00:00 21.3 12 Este 15 Este 0 -- -- 28
2020-09-01 20:00:00 26.5 6 Norte 13 Noroeste 0 -- -- 24
2020-09-01 19:00:00 27.3 5 Norte 18 Norte 0 -- -- 24
2020-09-01 18:00:00 27.3 9 Oeste 20 Noroeste 0 -- -- 22
2020-09-01 17:00:00 26.9 9 Norte 26 Noroeste 0 -- -- 20
2020-09-01 16:00:00 26.5 10 Oeste 20 Sudoeste 0 -- -- 17
2020-09-01 15:00:00 26 10 Sudoeste 24 Sudoeste 0 -- -- 20
2020-09-01 14:00:00 24.8 11 Noroeste 22 Oeste 0 -- -- 22
2020-09-01 13:00:00 24.2 9 Oeste 23 Noroeste 0 -- -- 24
2020-09-01 12:00:00 22.2 5 Sudoeste 15 Nordeste 0 -- -- 31
2020-09-01 11:00:00 19.1 11 Nordeste 15 Nordeste 0 -- -- 40
2020-09-01 10:00:00 16.6 10 Nordeste 14 Nordeste 0 -- -- 44
2020-09-01 09:00:00 12.2 5 Este 6 Nordeste 0 -- -- 61
2020-09-01 08:00:00 11.4 4 Nordeste 6 Este 0 -- -- 60
2020-09-01 07:00:00 12.1 4 Sur 7 Sudeste 0 -- -- 54
2020-09-01 06:00:00 12.6 3 Sur 8 Sudeste 0 -- -- 52
2020-09-01 05:00:00 13.3 2 Sur 9 Sur 0 -- -- 50
2020-09-01 04:00:00 13.3 3 Sur 14 Oeste 0 -- -- 50
2020-09-01 03:00:00 13.5 5 Oeste 15 Noroeste 0 -- -- 46
2020-09-01 02:00:00 12.8 4 Sudoeste 6 Sudeste 0 -- -- 47
2020-09-01 01:00:00 12.4 4 Sudeste 6 Sudeste 0 -- -- 48
2020-09-01 00:00:00 12.5 4 Sudeste 8 Sudeste 0 -- -- 46
2020-08-31 23:00:00 13.4 3 Sudeste 5 Sudeste 0 -- -- 39
2020-08-31 22:00:00 16 3 Noroeste 8 Noroeste 0 -- -- 33
2020-08-31 21:00:00 19.4 6 Noroeste 20 Oeste 0 -- -- 26
2020-08-31 20:00:00 22.9 15 Oeste 23 Oeste 0 -- -- 23
2020-08-31 19:00:00 25.5 6 Oeste 27 Sudoeste 0 -- -- 22
2020-08-31 18:00:00 24.7 13 Oeste 27 Oeste 0 -- -- 22
2020-08-31 17:00:00 23.8 14 Oeste 30 Oeste 0 -- -- 25
2020-08-31 16:00:00 23.7 14 Oeste 27 Oeste 0 -- -- 25
2020-08-31 15:00:00 22.5 13 Sudoeste 38 Oeste 0 -- -- 26
2020-08-31 14:00:00 22 9 Oeste 27 Sudoeste 0 -- -- 29
2020-08-31 13:00:00 20.4 6 Nordeste 17 Nordeste 0 -- -- 37
2020-08-31 12:00:00 16.5 12 Nordeste 22 Nordeste 0 -- -- 47
2020-08-31 11:00:00 13.6 17 Nordeste 26 Nordeste 0 -- -- 60
2020-08-31 10:00:00 10.3 20 Nordeste 32 Nordeste 0 -- -- 74
2020-08-31 09:00:00 7.7 21 Nordeste 27 Nordeste 0 -- -- 87
2020-08-31 08:00:00 5.5 18 Nordeste 23 Nordeste 0 -- -- 92
2020-08-31 07:00:00 5.9 19 Nordeste 24 Nordeste 0 -- -- 90
2020-08-31 06:00:00 6 19 Nordeste 24 Nordeste 0 -- -- 88
2020-08-31 05:00:00 6.8 14 Nordeste 23 Nordeste 0 -- -- 82
2020-08-31 04:00:00 6.3 12 Nordeste 18 Nordeste 0 -- -- 78
2020-08-31 03:00:00 8.5 12 Nordeste 24 Este 0 -- -- 72
2020-08-31 02:00:00 11.9 18 Este 27 Este 0 -- -- 58
2020-08-31 01:00:00 10.6 15 Este 28 Este 0 -- -- 56
2020-08-31 00:00:00 12 9 Sudeste 13 Sudeste 0 -- -- 49
2020-08-30 23:00:00 10.3 5 Este 13 Este 0 -- -- 52
2020-08-30 22:00:00 11.6 9 Este 11 Este 0 -- -- 48
2020-08-30 21:00:00 15.2 10 Este 23 Nordeste 0 -- -- 38
2020-08-30 20:00:00 19.8 13 Este 30 Nordeste 0 -- -- 30
2020-08-30 19:00:00 20.3 12 Nordeste 38 Nordeste 0 -- -- 29
2020-08-30 18:00:00 21.2 15 Este 26 Este 0 -- -- 31
2020-08-30 17:00:00 19.8 18 Nordeste 30 Nordeste 0 -- -- 34
2020-08-30 16:00:00 18.8 15 Nordeste 28 Nordeste 0 -- -- 37
2020-08-30 15:00:00 19.6 12 Este 27 Este 0 -- -- 36
2020-08-30 14:00:00 19.1 12 Este 30 Este 0 -- -- 39
2020-08-30 13:00:00 17.1 19 Este 34 Este 0 -- -- 44
2020-08-30 12:00:00 15.7 19 Nordeste 31 Nordeste 0 -- -- 48
2020-08-30 11:00:00 14.2 14 Nordeste 24 Nordeste 0 -- -- 56
2020-08-30 10:00:00 12.2 9 Nordeste 12 Nordeste 0 -- -- 67
2020-08-30 09:00:00 8.4 6 Este 10 Nordeste 0 -- -- 88
2020-08-30 08:00:00 3.8 8 Nordeste 10 Nordeste 0 -- -- 95
2020-08-30 07:00:00 3.6 8 Nordeste 9 Nordeste 0 -- -- 92
2020-08-30 06:00:00 5.1 4 Nordeste 11 Este 0 -- -- 91
2020-08-30 05:00:00 5.5 7 Nordeste 9 Este 0 -- -- 87
2020-08-30 04:00:00 7.4 6 Este 9 Nordeste 0 -- -- 82
2020-08-30 03:00:00 8.6 7 Este 19 Nordeste 0 -- -- 76
2020-08-30 02:00:00 9.9 16 Nordeste 31 Nordeste 0 -- -- 71
2020-08-30 01:00:00 11.5 21 Nordeste 37 Nordeste 0 -- -- 65
2020-08-30 00:00:00 12.8 19 Nordeste 36 Nordeste 0 -- -- 59
2020-08-29 23:00:00 13.8 19 Nordeste 35 Nordeste 0 -- -- 55
2020-08-29 22:00:00 15.1 19 Nordeste 32 Nordeste 0 -- -- 51
2020-08-29 21:00:00 16.4 22 Nordeste 41 Nordeste 0 -- -- 46
2020-08-29 20:00:00 16.4 25 Nordeste 42 Nordeste 0 -- -- 53
2020-08-29 19:00:00 19.1 16 Norte 40 Norte 0 -- -- 39
2020-08-29 18:00:00 19.9 14 Norte 32 Norte 0 -- -- 36
2020-08-29 17:00:00 20 18 Norte 33 Norte 0 -- -- 35
2020-08-29 16:00:00 16.2 24 Nordeste 46 Nordeste 0 -- -- 59
2020-08-29 15:00:00 19.4 21 Norte 36 Norte 0 -- -- 36
2020-08-29 14:00:00 18.7 20 Norte 35 Norte 0 -- -- 40
2020-08-29 13:00:00 18.5 16 Norte 31 Norte 0 -- -- 41
2020-08-29 12:00:00 17.2 13 Norte 28 Noroeste 0 -- -- 42
2020-08-29 11:00:00 15.4 12 Noroeste 21 Noroeste 0 -- -- 53
2020-08-29 10:00:00 12.8 10 Noroeste 19 Noroeste 0 -- -- 66
2020-08-29 09:00:00 9.3 10 Noroeste 14 Noroeste 0 -- -- 79
2020-08-29 08:00:00 6.1 7 Noroeste 11 Noroeste 0 -- -- 89
2020-08-29 07:00:00 5.3 3 Oeste 5 Oeste 0 -- -- 92
2020-08-29 06:00:00 5.8 0 Calma 8 Noroeste 0 -- -- 89
2020-08-29 05:00:00 6.1 5 Norte 8 Noroeste 0 -- -- 88
2020-08-29 04:00:00 7.6 4 Norte 6 Nordeste 0 -- -- 80
2020-08-29 03:00:00 9.6 5 Noroeste 15 Noroeste 0 -- -- 67
2020-08-29 02:00:00 10.8 6 Norte 14 Noroeste 0 -- -- 63
2020-08-29 01:00:00 11.5 5 Noroeste 20 Noroeste 0 -- -- 63
2020-08-29 00:00:00 13.5 15 Noroeste 26 Noroeste 0 -- -- 55
2020-08-28 23:00:00 14.9 16 Noroeste 27 Noroeste 0 -- -- 53
2020-08-28 22:00:00 16.3 15 Noroeste 33 Noroeste 0 -- -- 47
2020-08-28 21:00:00 17.9 16 Noroeste 34 Noroeste 0 -- -- 42
2020-08-28 20:00:00 20.9 22 Noroeste 47 Oeste 0 -- -- 39
2020-08-28 19:00:00 22.2 32 Oeste 47 Oeste 0 -- -- 38
2020-08-28 18:00:00 23.6 28 Oeste 43 Oeste 0 -- -- 32
2020-08-28 17:00:00 23.5 31 Oeste 54 Oeste 0 -- -- 29
2020-08-28 16:00:00 23.5 35 Oeste 48 Oeste 0 -- -- 30
2020-08-28 15:00:00 22.8 27 Oeste 45 Oeste 0 -- -- 32
2020-08-28 14:00:00 22.8 28 Oeste 43 Oeste 0 -- -- 31
2020-08-28 13:00:00 21.8 26 Oeste 41 Oeste 0 -- -- 36
2020-08-28 12:00:00 20.6 26 Oeste 41 Oeste 0 -- -- 41
2020-08-28 11:00:00 19.9 21 Noroeste 34 Noroeste 0 -- -- 46
2020-08-28 10:00:00 17.7 20 Oeste 28 Oeste 0 -- -- 71
2020-08-28 09:00:00 15.7 9 Oeste 18 Oeste 0 -- -- 87
2020-08-28 08:00:00 15 5 Sudoeste 12 Oeste 0 -- -- 89
2020-08-28 07:00:00 15.1 7 Sudoeste 13 Oeste 0 -- -- 88
2020-08-28 06:00:00 15.4 2 Sudoeste 9 Sur 0 -- -- 85
2020-08-28 05:00:00 16.2 7 Oeste 24 Oeste 0 -- -- 77
2020-08-28 04:00:00 17.9 8 Oeste 16 Oeste 0 -- -- 71
2020-08-28 03:00:00 19.1 11 Oeste 20 Oeste 0 -- -- 66
2020-08-28 02:00:00 19.6 18 Oeste 31 Oeste 0 -- -- 66
2020-08-28 01:00:00 20 18 Oeste 24 Oeste 0 -- -- 59
2020-08-28 00:00:00 22 11 Oeste 25 Noroeste 0 -- -- 53
2020-08-27 23:00:00 22.4 13 Noroeste 33 Noroeste 0 -- -- 54
2020-08-27 22:00:00 24.4 13 Noroeste 25 Noroeste 0 -- -- 49
2020-08-27 21:00:00 26.8 12 Noroeste 30 Oeste 0 -- -- 36
2020-08-27 20:00:00 30.2 18 Noroeste 35 Oeste 0 -- -- 24
2020-08-27 19:00:00 31.5 17 Noroeste 34 Oeste 0 -- -- 28
2020-08-27 18:00:00 32.1 18 Oeste 37 Oeste 0 -- -- 24
2020-08-27 17:00:00 31.8 19 Oeste 32 Oeste 0 -- -- 25
2020-08-27 16:00:00 32.1 11 Oeste 28 Noroeste 0 -- -- 30
2020-08-27 15:00:00 30.9 11 Oeste 31 Oeste 0 -- -- 34
2020-08-27 14:00:00 30.4 9 Noroeste 26 Noroeste 0 -- -- 36
2020-08-27 13:00:00 28.8 9 Oeste 16 Oeste 0 -- -- 43
2020-08-27 12:00:00 27 5 Sur 13 Sudeste 0 -- -- 51
2020-08-27 11:00:00 23.9 6 Norte 17 Noroeste 0 -- -- 62
2020-08-27 10:00:00 22.2 7 Noroeste 13 Noroeste 0 -- -- 69
2020-08-27 09:00:00 17.5 3 Sudoeste 6 Sudoeste 0 -- -- 83
2020-08-27 08:00:00 14.5 4 Sudoeste 7 Sudoeste 0 -- -- 92
2020-08-27 07:00:00 15.1 2 Sudeste 6 Este 0 -- -- 82
2020-08-27 06:00:00 16.5 3 Norte 16 Nordeste 0 -- -- 82
2020-08-27 05:00:00 16.4 3 Sudoeste 5 Sudoeste 0 -- -- 80
2020-08-27 04:00:00 16.4 2 Sur -- -- 0 -- -- 81
2020-08-27 03:00:00 17.2 4 Sur 5 Sudeste 0 -- -- 75
2020-08-27 02:00:00 18.8 5 Sur 8 Noroeste 0 -- -- 68
2020-08-27 01:00:00 18.9 4 Noroeste 8 Noroeste 0 -- -- 66
2020-08-27 00:00:00 21.3 5 Noroeste 10 Noroeste 0 -- -- 57
2020-08-26 23:00:00 23.6 6 Noroeste 8 Noroeste 0 -- -- 49
2020-08-26 22:00:00 24.3 6 Noroeste 10 Noroeste 0 -- -- 44
2020-08-26 21:00:00 27.8 8 Noroeste 19 Noroeste 0 -- -- 30
2020-08-26 20:00:00 32.4 10 Noroeste 30 Oeste 0 -- -- 20
2020-08-26 19:00:00 32.8 13 Noroeste 30 Oeste 0 -- -- 22
2020-08-26 18:00:00 33.3 12 Noroeste 27 Noroeste 0 -- -- 23
2020-08-26 17:00:00 32.9 14 Sudoeste 27 Oeste 0 -- -- 22
2020-08-26 16:00:00 32.6 12 Oeste 25 Sudoeste 0 -- -- 25
2020-08-26 15:00:00 32.2 6 Oeste 19 Noroeste 0 -- -- 29
2020-08-26 14:00:00 30.2 5 Oeste 14 Noroeste 0 -- -- 33
2020-08-26 13:00:00 28.3 7 Norte 18 Este 0 -- -- 38
2020-08-26 12:00:00 25 12 Nordeste 23 Este 0 -- -- 49
2020-08-26 11:00:00 21.6 16 Nordeste 24 Nordeste 0 -- -- 60
2020-08-26 10:00:00 18.6 17 Nordeste 27 Nordeste 0 -- -- 71
2020-08-26 09:00:00 15.6 15 Nordeste 20 Nordeste 0 -- -- 84
2020-08-26 08:00:00 12.5 7 Nordeste 12 Nordeste 0 -- -- 89
2020-08-26 07:00:00 12.9 6 Nordeste 8 Nordeste 0 -- -- 86
2020-08-26 06:00:00 13.9 5 Nordeste 8 Nordeste 0 -- -- 83
2020-08-26 05:00:00 14.5 8 Nordeste 9 Nordeste 0 -- -- 81
2020-08-26 04:00:00 15.4 8 Nordeste 15 Nordeste 0 -- -- 77
2020-08-26 03:00:00 15.1 10 Nordeste 13 Nordeste 0 -- -- 77
2020-08-26 02:00:00 16.1 0 Calma 6 Sudeste 0 -- -- 71
2020-08-26 01:00:00 18.5 5 Sudeste 10 Sudeste 0 -- -- 61
2020-08-26 00:00:00 20.5 5 Noroeste 6 Noroeste 0 -- -- 51
2020-08-25 23:00:00 19.2 4 Noroeste 7 Noroeste 0 -- -- 54
2020-08-25 22:00:00 23.8 4 Norte 17 Noroeste 0 -- -- 39
2020-08-25 21:00:00 27.2 9 Noroeste 24 Noroeste 0 -- -- 30
2020-08-25 20:00:00 31.1 17 Oeste 32 Oeste 0 -- -- 13
2020-08-25 19:00:00 32.1 16 Oeste 28 Oeste 0 -- -- 18
2020-08-25 18:00:00 32.2 17 Oeste 35 Oeste 0 -- -- 20
2020-08-25 17:00:00 32.2 17 Oeste 32 Oeste 0 -- -- 21
2020-08-25 16:00:00 31.8 13 Sudoeste 32 Oeste 0 -- -- 23
2020-08-25 15:00:00 31.1 9 Sudoeste 35 Sudoeste 0 -- -- 25
2020-08-25 14:00:00 30.3 14 Sudoeste 23 Sudoeste 0 -- -- 27
2020-08-25 13:00:00 28.9 11 Oeste 25 Sudoeste 0 -- -- 27
2020-08-25 12:00:00 27.3 7 Oeste 17 Oeste 0 -- -- 33
2020-08-25 11:00:00 24.8 7 Noroeste 16 Oeste 0 -- -- 39
2020-08-25 10:00:00 21.3 4 Oeste 10 Oeste 0 -- -- 54
2020-08-25 09:00:00 16.4 0 Calma 4 Sur 0 -- -- 73
2020-08-25 08:00:00 12.3 4 Sur 6 Sudeste 0 -- -- 81
2020-08-25 07:00:00 12.7 3 Sur 5 Sur 0 -- -- 78
2020-08-25 06:00:00 13.3 5 Sudoeste 8 Sudoeste 0 -- -- 76
2020-08-25 05:00:00 14.9 6 Oeste 16 Oeste 0 -- -- 68
2020-08-25 04:00:00 14.7 4 Sudeste 8 Sudeste 0 -- -- 67
2020-08-25 03:00:00 14.5 5 Sudeste -- -- 0 -- -- 71
2020-08-25 02:00:00 15.5 3 Sur 4 Sudeste 0 -- -- 68
2020-08-25 01:00:00 15.8 3 Nordeste 4 Este 0 -- -- 65
2020-08-25 00:00:00 17.5 3 Noroeste 12 Noroeste 0 -- -- 58
2020-08-24 23:00:00 20.9 4 Norte 12 Nordeste 0 -- -- 48
2020-08-24 22:00:00 19.8 9 Nordeste 14 Este 0 -- -- 50
2020-08-24 21:00:00 27.3 2 Nordeste 7 Nordeste 0 -- -- 29
2020-08-24 20:00:00 31.5 3 Nordeste 13 Nordeste 0 -- -- 24
2020-08-24 19:00:00 30.3 9 Norte 16 Norte 0 -- -- 25
2020-08-24 18:00:00 30.1 9 Noroeste 21 Nordeste 0 -- -- 26
2020-08-24 17:00:00 29.8 6 Norte 22 Este 0 -- -- 27
2020-08-24 16:00:00 29.2 10 Nordeste 26 Este 0 -- -- 30
2020-08-24 15:00:00 28 13 Nordeste 24 Nordeste 0 -- -- 34
2020-08-24 14:00:00 27.2 14 Este 27 Nordeste 0 -- -- 35
2020-08-24 13:00:00 24.9 17 Nordeste 32 Nordeste 0 -- -- 43
2020-08-24 12:00:00 21.4 18 Nordeste 29 Nordeste 0 -- -- 52
2020-08-24 11:00:00 18.2 21 Nordeste 34 Nordeste 0 -- -- 64
2020-08-24 10:00:00 15.5 22 Nordeste 32 Nordeste 0 -- -- 77
2020-08-24 09:00:00 13 19 Nordeste 27 Este 0 -- -- 91
2020-08-24 08:00:00 11.6 16 Nordeste 24 Nordeste 0 -- -- 96
2020-08-24 07:00:00 11.9 20 Nordeste 27 Nordeste 0 -- -- 94
2020-08-24 06:00:00 12.6 19 Nordeste 28 Nordeste 0 -- -- 91
2020-08-24 05:00:00 13.4 18 Nordeste 29 Nordeste 0 -- -- 88
2020-08-24 04:00:00 13.6 13 Nordeste 25 Nordeste 0 -- -- 85
2020-08-24 03:00:00 14.9 13 Nordeste 27 Nordeste 0 -- -- 75
2020-08-24 02:00:00 17.3 21 Nordeste 29 Nordeste 0 -- -- 58
2020-08-24 01:00:00 15.3 10 Nordeste 14 Nordeste 0 -- -- 65
2020-08-24 00:00:00 15.5 9 Nordeste 15 Nordeste 0 -- -- 65
2020-08-23 23:00:00 16.2 10 Nordeste 15 Nordeste 0 -- -- 59
2020-08-23 22:00:00 19.7 9 Nordeste 11 Nordeste 0 -- -- 44
2020-08-23 21:00:00 23.1 10 Nordeste 18 Nordeste 0 -- -- 33
2020-08-23 20:00:00 27.9 12 Nordeste 18 Nordeste 0 -- -- 24
2020-08-23 19:00:00 28.8 13 Nordeste 31 Nordeste 0 -- -- 25
2020-08-23 18:00:00 29.8 9 Este 27 Nordeste 0 -- -- 25
2020-08-23 17:00:00 28.8 12 Este 24 Este 0 -- -- 28
2020-08-23 16:00:00 28.3 11 Este 23 Este 0 -- -- 30
2020-08-23 15:00:00 26.8 12 Este 27 Nordeste 0 -- -- 34
2020-08-23 14:00:00 25.1 17 Nordeste 32 Este 0 -- -- 38
2020-08-23 13:00:00 23.1 20 Nordeste 30 Nordeste 0 -- -- 48
2020-08-23 12:00:00 21.1 17 Nordeste 28 Nordeste 0 -- -- 59
2020-08-23 11:00:00 17.8 21 Nordeste 28 Nordeste 0 -- -- 74
2020-08-23 10:00:00 14.5 20 Nordeste 35 Nordeste 0 -- -- 93
2020-08-23 09:00:00 12.4 18 Nordeste 27 Nordeste 0 -- -- 99
2020-08-23 08:00:00 10.7 13 Nordeste 27 Nordeste 0 -- -- 99
2020-08-23 07:00:00 10.7 13 Nordeste 23 Nordeste 0 -- -- 97
2020-08-23 06:00:00 11.9 18 Nordeste 24 Nordeste 0 -- -- 95
2020-08-23 05:00:00 11.9 15 Nordeste 22 Nordeste 0 -- -- 90
2020-08-23 04:00:00 11.5 14 Nordeste 18 Nordeste 0 -- -- 80
2020-08-23 03:00:00 11.9 4 Nordeste 10 Nordeste 0 -- -- 72
2020-08-23 02:00:00 12 7 Nordeste 9 Nordeste 0 -- -- 71
2020-08-23 01:00:00 14.8 4 Noroeste 8 Noroeste 0 -- -- 57
2020-08-23 00:00:00 14.8 4 Noroeste 7 Noroeste 0 -- -- 52
2020-08-22 23:00:00 16.5 4 Noroeste 11 Noroeste 0 -- -- 47
2020-08-22 22:00:00 19.1 6 Noroeste 16 Noroeste 0 -- -- 39
2020-08-22 21:00:00 23.3 9 Noroeste 21 Oeste 0 -- -- 31
2020-08-22 20:00:00 27 12 Noroeste 22 Noroeste 0 -- -- 22
2020-08-22 19:00:00 28.6 5 Norte 18 Oeste 0 -- -- 22
2020-08-22 18:00:00 28.2 9 Oeste 26 Sudoeste 0 -- -- 21
2020-08-22 17:00:00 27.5 13 Oeste 30 Sudoeste 0 -- -- 26
2020-08-22 16:00:00 27.6 6 Sudoeste 17 Noroeste 0 -- -- 26
2020-08-22 15:00:00 26.1 6 Sur 14 Oeste 0 -- -- 36
2020-08-22 14:00:00 24.5 7 Norte 15 Norte 0 -- -- 40
2020-08-22 13:00:00 22.9 6 Noroeste 11 Nordeste 0 -- -- 46
2020-08-22 12:00:00 20.5 5 Oeste 14 Noroeste 0 -- -- 55
2020-08-22 11:00:00 18.5 5 Noroeste 8 Noroeste 0 -- -- 61
2020-08-22 10:00:00 16 2 Oeste 5 Oeste 0 -- -- 85
2020-08-22 09:00:00 12.5 2 Sudeste 4 Sudeste 0 -- -- 100
2020-08-22 08:00:00 10.2 3 Nordeste 6 Sudeste 0 -- -- 100
2020-08-22 07:00:00 9.5 5 Sudeste 6 Sudeste 0 -- -- 99
2020-08-22 06:00:00 9.9 2 Sudoeste 5 Sur 0 -- -- 99
2020-08-22 05:00:00 9.9 3 Sur 4 Oeste 0 -- -- 98
2020-08-22 04:00:00 10.6 0 Calma 4 Sudeste 0 -- -- 97
2020-08-22 03:00:00 11.6 2 Sudeste 4 Sur 0 -- -- 92
2020-08-22 02:00:00 12.7 3 Sur 10 Noroeste 0 -- -- 89
2020-08-22 01:00:00 14.5 6 Noroeste 11 Noroeste 0 -- -- 82
2020-08-22 00:00:00 15.3 7 Noroeste 14 Noroeste 0 -- -- 77
2020-08-21 23:00:00 16.1 5 Noroeste 16 Noroeste 0 -- -- 68
2020-08-21 22:00:00 17.6 5 Noroeste 15 Noroeste 0 -- -- 63
2020-08-21 21:00:00 20.7 12 Oeste 29 Oeste 0 -- -- 51
2020-08-21 20:00:00 22.8 21 Oeste 36 Noroeste 0 -- -- 40
2020-08-21 19:00:00 23.6 17 Oeste 33 Oeste 0 -- -- 38
2020-08-21 18:00:00 23.7 21 Oeste 36 Sudoeste 0 -- -- 32
2020-08-21 17:00:00 23.8 25 Oeste 37 Sudoeste 0 -- -- 48
2020-08-21 16:00:00 22.3 24 Oeste 36 Oeste 0 -- -- 62
2020-08-21 15:00:00 20.2 15 Sudoeste 28 Oeste 0 -- -- 76
2020-08-21 14:00:00 19 16 Oeste 28 Oeste 0 -- -- 82
2020-08-21 13:00:00 17.3 12 Noroeste 24 Oeste 0 -- -- 93
2020-08-21 12:00:00 16.5 12 Noroeste 21 Oeste 0 -- -- 97
2020-08-21 11:00:00 16.6 7 Oeste 13 Oeste 0 -- -- 98
2020-08-21 10:00:00 16.3 8 Oeste 12 Oeste 0.2 -- -- 99
2020-08-21 09:00:00 15.9 7 Oeste 19 Oeste 0 -- -- 99
2020-08-21 08:00:00 16 6 Noroeste 10 Noroeste 0.2 -- -- 99
2020-08-21 07:00:00 16 5 Oeste 13 Oeste 0 -- -- 99
2020-08-21 06:00:00 16.2 7 Oeste 18 Sudoeste 0 -- -- 98
2020-08-21 05:00:00 16.5 10 Oeste 16 Oeste 0.2 -- -- 98
2020-08-21 04:00:00 16.2 13 Oeste 23 Oeste 0 -- -- 98
2020-08-21 03:00:00 16.9 11 Oeste 20 Oeste 0.2 -- -- 98
2020-08-21 02:00:00 17 16 Oeste 22 Oeste 0 -- -- 96
2020-08-21 01:00:00 17.2 12 Oeste 17 Oeste 0.2 -- -- 97
2020-08-21 00:00:00 17.1 12 Oeste 22 Oeste 1.2 -- -- 98
2020-08-20 23:00:00 17.2 5 Oeste 17 Oeste 2.6 -- -- 98
2020-08-20 22:00:00 16.9 15 Oeste 46 Oeste 10.4 -- -- 97
2020-08-20 21:00:00 18.6 22 Oeste 44 Oeste 1 -- -- 93
2020-08-20 20:00:00 20.1 26 Oeste 62 Sudoeste 0 -- -- 91
2020-08-20 19:00:00 26.3 35 Sudoeste 51 Sudoeste 0 -- -- 47
2020-08-20 18:00:00 28.1 36 Sudoeste 56 Sudoeste 0 -- -- 44
2020-08-20 17:00:00 27.1 41 Sudoeste 60 Sudoeste 0 -- -- 48
2020-08-20 16:00:00 28.5 38 Sudoeste 56 Sudoeste 0 -- -- 43
2020-08-20 15:00:00 27.4 36 Sudoeste 54 Sudoeste 0 -- -- 47
2020-08-20 14:00:00 27.6 29 Sudoeste 43 Sudoeste 0 -- -- 48
2020-08-20 13:00:00 26.2 25 Sudoeste 40 Sudoeste 0 -- -- 53
2020-08-20 12:00:00 24.8 19 Sudoeste 33 Sudoeste 0 -- -- 55
2020-08-20 11:00:00 22.6 19 Sudoeste 30 Sudoeste 0 -- -- 58
2020-08-20 10:00:00 19.4 20 Sudoeste 32 Sudoeste 0 -- -- 62
2020-08-20 09:00:00 16.4 17 Sudoeste 22 Sur 0 -- -- 82
2020-08-20 08:00:00 15.2 10 Sur 18 Sur 0 -- -- 96
2020-08-20 07:00:00 11.8 3 Sudeste 6 Sur 0 -- -- 95
2020-08-20 06:00:00 12.3 4 Sudeste 6 Sudoeste 0 -- -- 93
2020-08-20 05:00:00 13.7 3 Sur 8 Sur 0 -- -- 87
2020-08-20 04:00:00 14.9 6 Sudoeste 12 Sudoeste 0 -- -- 80
2020-08-20 03:00:00 15.7 11 Sudoeste 16 Sudoeste 0 -- -- 75
2020-08-20 02:00:00 16.3 8 Sudoeste 13 Sur 0 -- -- 64
2020-08-20 01:00:00 16.8 6 Sur 15 Oeste 0 -- -- 56
2020-08-20 00:00:00 19.2 13 Oeste 21 Oeste 0 -- -- 46